createdAt,value
2023-05-16T00:00:51.664Z,99437.91
2023-05-16T00:03:19.258Z,99432.66
2023-05-16T00:05:46.185Z,99432.88
2023-05-16T00:08:13.266Z,99431.00
2023-05-16T00:10:40.332Z,99435.00
2023-05-16T00:13:07.530Z,99434.41
2023-05-16T00:15:35.772Z,99432.41
2023-05-16T00:18:03.937Z,99447.16
2023-05-16T00:20:31.103Z,99435.13
2023-05-16T00:22:58.684Z,99437.94
2023-05-16T00:25:25.808Z,99445.75
2023-05-16T00:27:52.787Z,99433.34
2023-05-16T00:30:20.041Z,99429.47
2023-05-16T00:32:48.269Z,99433.59
2023-05-16T00:35:16.466Z,99430.19
2023-05-16T00:37:43.918Z,99436.44
2023-05-16T00:40:11.914Z,99436.03
2023-05-16T00:42:39.096Z,99437.13
2023-05-16T00:45:08.110Z,99439.00
2023-05-16T00:47:35.588Z,99434.41
2023-05-16T00:50:06.058Z,99433.81
2023-05-16T00:52:33.336Z,99434.41
2023-05-16T00:55:00.336Z,99422.97
2023-05-16T00:57:28.098Z,99425.34
2023-05-16T00:59:55.362Z,99421.22
2023-05-16T01:02:22.579Z,99426.63
2023-05-16T01:04:50.069Z,99425.00
2023-05-16T01:07:18.747Z,99421.09
2023-05-16T01:09:46.100Z,99435.84
2023-05-16T01:12:26.120Z,99437.81
2023-05-16T01:15:09.967Z,99437.91
2023-05-16T01:17:56.103Z,99444.13
2023-05-16T01:20:36.705Z,99435.28
2023-05-16T01:23:33.169Z,99444.25
2023-05-16T01:26:16.191Z,99444.59
2023-05-16T01:28:45.782Z,99453.34
2023-05-16T01:31:13.144Z,99448.75
2023-05-16T01:33:40.440Z,99447.31
2023-05-16T01:36:20.451Z,99448.47
2023-05-16T01:39:04.798Z,99449.53
2023-05-16T01:41:47.371Z,99449.19
2023-05-16T01:44:23.523Z,99446.13
2023-05-16T01:46:57.716Z,99449.09
2023-05-16T01:49:34.893Z,99436.72
2023-05-16T01:52:10.899Z,99438.47
2023-05-16T01:54:43.806Z,99434.59
2023-05-16T01:57:14.032Z,99437.31
2023-05-16T01:59:44.026Z,99446.28
2023-05-16T02:02:11.261Z,99447.34
2023-05-16T02:04:38.652Z,99441.56
2023-05-16T02:07:06.270Z,99448.28
2023-05-16T02:09:33.457Z,99437.78
2023-05-16T02:12:00.818Z,99439.69
2023-05-16T02:14:29.263Z,99442.88
2023-05-16T02:16:57.801Z,99442.59
2023-05-16T02:19:24.736Z,99441.66
2023-05-16T02:21:51.630Z,99449.53
2023-05-16T02:24:18.613Z,99442.97
2023-05-16T02:26:45.799Z,99438.38
2023-05-16T02:29:12.692Z,99445.47
2023-05-16T02:31:41.165Z,99449.28
2023-05-16T02:34:08.602Z,99448.56
2023-05-16T02:36:35.509Z,99448.47
2023-05-16T02:39:05.444Z,99456.69
2023-05-16T02:41:32.414Z,99454.94
2023-05-16T02:43:59.314Z,99455.75
2023-05-16T02:46:28.574Z,99451.16
2023-05-16T02:48:57.530Z,99444.56
2023-05-16T02:51:29.959Z,99453.66
2023-05-16T02:53:57.465Z,99459.88
2023-05-16T02:56:24.461Z,99453.88
2023-05-16T02:58:51.799Z,99459.00
2023-05-16T03:01:18.715Z,99462.19
2023-05-16T03:03:45.847Z,99468.75
2023-05-16T03:06:15.062Z,99469.97
2023-05-16T03:14:47.720Z,99470.44
2023-05-16T03:17:14.869Z,99476.34
2023-05-16T03:19:41.704Z,99464.38
2023-05-16T03:22:09.861Z,99464.81
2023-05-16T03:24:36.771Z,99465.44
2023-05-16T03:27:04.732Z,99465.81
2023-05-16T03:29:32.798Z,99465.88
2023-05-16T03:32:00.204Z,99474.09
2023-05-16T03:34:27.526Z,99482.00
2023-05-16T03:36:55.272Z,99467.97
2023-05-16T03:39:23.611Z,99473.53
2023-05-16T03:41:50.582Z,99472.59
2023-05-16T03:44:17.707Z,99475.78
2023-05-16T03:46:44.713Z,99484.00
2023-05-16T03:49:11.670Z,99471.69
2023-05-16T03:51:38.585Z,99475.09
2023-05-16T03:54:05.938Z,99479.59
2023-05-16T03:56:34.500Z,99480.06
2023-05-16T03:59:01.385Z,99479.00
2023-05-16T04:01:28.602Z,99478.53
2023-05-16T04:03:55.502Z,99480.75
2023-05-16T04:06:23.254Z,99479.81
2023-05-16T04:08:50.223Z,99478.16
2023-05-16T04:11:17.182Z,99480.31
2023-05-16T04:13:45.534Z,99480.16
2023-05-16T04:16:12.480Z,99479.91
2023-05-16T04:18:40.859Z,99482.28
2023-05-16T04:21:07.976Z,99479.41
2023-05-16T04:23:34.909Z,99492.41
2023-05-16T04:26:01.840Z,99482.94
2023-05-16T04:28:28.808Z,99495.72
2023-05-16T04:30:57.125Z,99495.22
2023-05-16T04:33:24.997Z,99494.63
2023-05-16T04:35:53.344Z,99497.47
2023-05-16T04:38:20.560Z,99495.69
2023-05-16T04:40:48.069Z,99493.19
2023-05-16T04:43:15.031Z,99497.56
2023-05-16T04:45:41.970Z,99488.00
2023-05-16T04:48:10.601Z,99496.28
2023-05-16T04:50:38.693Z,99502.72
2023-05-16T04:53:05.639Z,99510.38
2023-05-16T04:55:33.207Z,99502.09
2023-05-16T04:58:00.293Z,99503.34
2023-05-16T05:00:27.865Z,99515.75
2023-05-16T05:02:55.072Z,99513.69
2023-05-16T05:05:23.940Z,99514.94
2023-05-16T05:07:51.076Z,99522.31
2023-05-16T05:10:18.113Z,99524.78
2023-05-16T05:12:45.086Z,99529.47
2023-05-16T05:15:12.123Z,99532.44
2023-05-16T05:17:39.516Z,99536.31
2023-05-16T05:20:08.230Z,99545.72
2023-05-16T05:22:36.671Z,99535.19
2023-05-16T05:29:10.041Z,99541.66
2023-05-16T05:31:37.100Z,99548.75
2023-05-16T05:34:04.009Z,99548.75
2023-05-16T05:36:30.953Z,99547.19
2023-05-16T05:38:59.288Z,99542.59
2023-05-16T05:41:26.354Z,99552.50
2023-05-16T05:43:55.037Z,99548.31
2023-05-16T05:46:22.312Z,99549.56
2023-05-16T05:48:49.854Z,99552.84
2023-05-16T05:51:16.755Z,99554.25
2023-05-16T05:53:43.637Z,99552.84
2023-05-16T05:56:11.805Z,99554.09
2023-05-16T05:58:39.592Z,99561.03
2023-05-16T06:01:06.380Z,99556.91
2023-05-16T06:03:33.418Z,99561.03
2023-05-16T06:06:02.141Z,99561.28
2023-05-16T06:08:29.159Z,99560.78
2023-05-16T06:10:56.051Z,99552.63
2023-05-16T06:13:27.070Z,99549.91
2023-05-16T06:15:54.638Z,99559.53
2023-05-16T06:18:21.858Z,99551.63
2023-05-16T06:20:49.229Z,99556.28
2023-05-16T06:23:17.943Z,99554.31
2023-05-16T06:25:45.713Z,99564.41
2023-05-16T06:28:13.949Z,99574.25
2023-05-16T06:30:42.539Z,99570.25
2023-05-16T06:33:10.242Z,99573.94
2023-05-16T06:35:37.252Z,99576.56
2023-05-16T06:38:04.151Z,99577.47
2023-05-16T06:40:31.032Z,99574.88
2023-05-16T06:42:58.165Z,99579.56
2023-05-16T06:45:25.526Z,99583.19
2023-05-16T06:47:56.548Z,99592.44
2023-05-16T06:50:24.776Z,99590.56
2023-05-16T06:52:51.788Z,99591.41
2023-05-16T06:55:19.082Z,99585.88
2023-05-16T06:57:47.719Z,99588.06
2023-05-16T07:00:16.273Z,99598.13
2023-05-16T07:02:43.330Z,99597.06
2023-05-16T07:05:12.636Z,99597.53
2023-05-16T07:07:39.646Z,99617.47
2023-05-16T07:10:08.028Z,99617.03
2023-05-16T07:12:36.099Z,99617.03
2023-05-16T07:15:04.405Z,99611.34
2023-05-16T07:17:32.397Z,99611.47
2023-05-16T07:19:59.396Z,99617.84
2023-05-16T07:22:28.407Z,99621.72
2023-05-16T07:24:55.596Z,99615.13
2023-05-16T07:27:23.700Z,99622.31
2023-05-16T07:29:50.753Z,99616.97
2023-05-16T07:32:20.670Z,99617.56
2023-05-16T07:34:47.845Z,99627.72
2023-05-16T07:37:15.144Z,99618.41
2023-05-16T07:39:44.329Z,99624.16
2023-05-16T07:42:11.507Z,99631.28
2023-05-16T07:44:38.514Z,99631.34
2023-05-16T07:47:06.746Z,99635.75
2023-05-16T07:49:35.665Z,99641.75
2023-05-16T07:52:02.818Z,99639.63
2023-05-16T07:54:32.571Z,99635.59
2023-05-16T07:57:01.119Z,99631.34
2023-05-16T07:59:29.652Z,99636.97
2023-05-16T08:01:56.715Z,99641.22
2023-05-16T08:04:25.464Z,99638.63
2023-05-16T08:06:52.430Z,99638.84
2023-05-16T08:09:19.633Z,99634.03
2023-05-16T08:11:46.662Z,99631.78
2023-05-16T08:14:15.251Z,99630.50
2023-05-16T08:16:42.315Z,99634.88
2023-05-16T08:19:10.963Z,99638.66
2023-05-16T08:21:38.809Z,99639.94
2023-05-16T08:24:06.772Z,99642.91
2023-05-16T08:26:33.698Z,99642.66
2023-05-16T08:29:00.636Z,99635.34
2023-05-16T08:31:28.903Z,99642.06
2023-05-16T08:33:55.913Z,99633.78
2023-05-16T08:36:23.656Z,99644.66
2023-05-16T08:38:50.767Z,99641.69
2023-05-16T08:41:18.791Z,99642.19
2023-05-16T08:43:45.979Z,99640.16
2023-05-16T08:46:13.739Z,99643.81
2023-05-16T08:48:47.943Z,99643.13
2023-05-16T08:51:19.573Z,99651.53
2023-05-16T08:54:13.631Z,99645.13
2023-05-16T08:56:43.392Z,99640.41
2023-05-16T08:59:13.637Z,99653.78
2023-05-16T09:01:41.908Z,99648.38
2023-05-16T09:04:11.726Z,99649.34
2023-05-16T09:06:39.432Z,99653.19
2023-05-16T09:09:07.088Z,99656.59
2023-05-16T09:11:36.676Z,99657.59
2023-05-16T09:14:07.406Z,99653.09
2023-05-16T09:16:34.320Z,99658.63
2023-05-16T09:19:02.245Z,99655.00
2023-05-16T09:21:33.588Z,99657.09
2023-05-16T09:24:04.100Z,99671.38
2023-05-16T09:26:33.579Z,99665.19
2023-05-16T09:29:00.642Z,99667.28
2023-05-16T09:31:31.376Z,99666.53
2023-05-16T09:33:58.829Z,99662.44
2023-05-16T09:36:26.818Z,99670.63
2023-05-16T09:38:55.118Z,99672.91
2023-05-16T09:41:22.504Z,99672.53
2023-05-16T09:43:50.641Z,99672.03
2023-05-16T09:46:17.753Z,99657.81
2023-05-16T09:48:46.725Z,99666.28
2023-05-16T09:51:15.742Z,99661.88
2023-05-16T09:53:43.728Z,99669.22
2023-05-16T09:56:15.759Z,99669.22
2023-05-16T09:58:46.530Z,99668.09
2023-05-16T10:01:13.741Z,99660.19
2023-05-16T10:03:44.134Z,99669.03
2023-05-16T10:06:13.788Z,99660.84
2023-05-16T10:08:43.489Z,99665.00
2023-05-16T10:11:14.079Z,99660.00
2023-05-16T10:13:41.708Z,99667.13
2023-05-16T10:16:13.940Z,99662.94
2023-05-16T10:18:45.664Z,99663.72
2023-05-16T10:21:16.769Z,99664.72
2023-05-16T10:23:50.014Z,99665.03
2023-05-16T10:26:20.718Z,99665.19
2023-05-16T10:29:54.373Z,99669.13
2023-05-16T10:32:24.513Z,99664.56
2023-05-16T10:34:53.339Z,99665.59
2023-05-16T10:37:20.515Z,99676.91
2023-05-16T10:39:49.026Z,99680.84
2023-05-16T10:42:17.934Z,99687.56
2023-05-16T10:44:54.628Z,99685.88
2023-05-16T10:47:29.886Z,99675.47
2023-05-16T10:49:57.181Z,99689.88
2023-05-16T10:52:34.092Z,99691.28
2023-05-16T10:55:03.565Z,99690.78
2023-05-16T10:57:33.779Z,99684.84
2023-05-16T11:00:01.010Z,99680.59
2023-05-16T11:02:31.910Z,99683.41
2023-05-16T11:05:03.612Z,99689.44
2023-05-16T11:07:34.408Z,99688.72
2023-05-16T11:13:14.891Z,99697.97
2023-05-16T11:15:42.234Z,99697.25
2023-05-16T11:18:14.815Z,99703.84
2023-05-16T11:20:43.099Z,99701.31
2023-05-16T11:23:26.850Z,99703.19
2023-05-16T11:25:56.685Z,99708.88
2023-05-16T11:28:52.332Z,99713.13
2023-05-16T11:31:21.566Z,99715.16
2023-05-16T11:33:49.657Z,99725.31
2023-05-16T11:36:16.837Z,99719.41
2023-05-16T11:39:58.999Z,99716.56
2023-05-16T11:42:30.417Z,99715.47
2023-05-16T11:45:07.226Z,99715.19
2023-05-16T11:47:37.155Z,99712.94
2023-05-16T11:50:05.954Z,99716.53
2023-05-16T11:52:33.179Z,99722.03
2023-05-16T11:55:00.309Z,99716.00
2023-05-16T11:57:28.155Z,99723.56
2023-05-16T11:59:55.096Z,99731.56
2023-05-16T12:02:23.965Z,99731.84
2023-05-16T12:04:51.116Z,99740.66
2023-05-16T12:07:21.291Z,99731.09
2023-05-16T12:09:59.815Z,99738.06
2023-05-16T12:12:29.250Z,99736.56
2023-05-16T12:14:56.531Z,99736.09
2023-05-16T12:17:25.136Z,99745.06
2023-05-16T12:19:55.733Z,99738.69
2023-05-16T12:22:24.819Z,99744.59
2023-05-16T12:24:53.036Z,99747.19
2023-05-16T12:27:22.555Z,99751.47
2023-05-16T12:29:50.396Z,99749.53
2023-05-16T12:32:19.251Z,99759.22
2023-05-16T12:34:52.127Z,99756.50
2023-05-16T12:37:21.382Z,99775.44
2023-05-16T12:39:48.402Z,99768.69
2023-05-16T12:42:17.648Z,99769.44
2023-05-16T12:44:46.992Z,99770.25
2023-05-16T12:47:14.621Z,99768.47
2023-05-16T12:49:45.398Z,99767.91
2023-05-16T12:52:18.854Z,99760.69
2023-05-16T12:54:46.910Z,99767.03
2023-05-16T12:57:15.851Z,99763.97
2023-05-16T12:59:43.175Z,99764.91
2023-05-16T13:02:10.231Z,99761.03
2023-05-16T13:04:37.622Z,99763.03
2023-05-16T13:07:05.818Z,99758.44
2023-05-16T13:09:34.119Z,99769.03
2023-05-16T13:12:04.141Z,99757.75
2023-05-16T13:14:31.854Z,99754.84
2023-05-16T13:16:58.911Z,99765.66
2023-05-16T13:19:26.197Z,99766.75
2023-05-16T13:21:53.315Z,99758.16
2023-05-16T13:24:20.181Z,99765.28
2023-05-16T13:26:50.291Z,99768.56
2023-05-16T13:29:17.679Z,99776.00
2023-05-16T13:31:45.854Z,99781.25
2023-05-16T13:34:13.034Z,99777.22
2023-05-16T13:36:53.234Z,99781.59
2023-05-16T13:39:21.933Z,99777.06
2023-05-16T13:41:51.175Z,99780.44
2023-05-16T13:44:18.635Z,99769.66
2023-05-16T13:46:46.221Z,99771.13
2023-05-16T13:49:13.288Z,99771.53
2023-05-16T13:51:40.425Z,99773.22
2023-05-16T13:54:08.590Z,99772.03
2023-05-16T13:56:35.753Z,99769.41
2023-05-16T13:59:06.825Z,99767.91
2023-05-16T14:01:34.911Z,99771.22
2023-05-16T14:04:02.343Z,99768.72
2023-05-16T14:06:32.184Z,99771.38
2023-05-16T14:09:01.105Z,99777.06
2023-05-16T14:11:29.477Z,99769.97
2023-05-16T14:13:57.613Z,99775.84
2023-05-16T14:16:26.595Z,99776.97
2023-05-16T14:18:53.741Z,99784.41
2023-05-16T14:21:22.188Z,99780.63
2023-05-16T14:23:49.860Z,99776.34
2023-05-16T14:26:16.830Z,99777.16
2023-05-16T14:28:43.730Z,99773.13
2023-05-16T14:31:10.651Z,99766.81
2023-05-16T14:33:39.276Z,99765.00
2023-05-16T14:36:08.623Z,99766.25
2023-05-16T14:38:36.159Z,99758.66
2023-05-16T14:41:04.085Z,99772.22
2023-05-16T14:44:47.105Z,99766.66
2023-05-16T14:47:14.805Z,99769.50
2023-05-16T14:49:43.591Z,99770.53
2023-05-16T14:52:11.150Z,99778.84
2023-05-16T14:54:38.028Z,99779.13
2023-05-16T14:57:05.638Z,99783.94
2023-05-16T14:59:33.856Z,99790.88
2023-05-16T15:02:00.756Z,99784.44
2023-05-16T15:04:45.175Z,99785.41
2023-05-16T15:07:12.187Z,99791.19
2023-05-16T15:09:39.042Z,99796.31
2023-05-16T15:12:07.460Z,99792.94
2023-05-16T15:14:34.441Z,99794.50
2023-05-16T15:17:01.276Z,99792.16
2023-05-16T15:19:28.302Z,99793.16
2023-05-16T15:21:56.683Z,99801.47
2023-05-16T15:24:29.886Z,99793.56
2023-05-16T15:31:36.692Z,99805.41
2023-05-16T15:34:03.932Z,99806.56
2023-05-16T15:36:30.860Z,99809.34
2023-05-16T15:38:59.240Z,99809.72
2023-05-16T15:41:43.654Z,99812.44
2023-05-16T15:44:34.353Z,99805.44
2023-05-16T15:47:01.737Z,99816.81
2023-05-16T15:49:28.927Z,99824.47
2023-05-16T15:51:55.872Z,99831.84
2023-05-16T15:54:24.152Z,99818.47
2023-05-16T15:56:51.747Z,99828.41
2023-05-16T15:59:18.741Z,99831.13
2023-05-16T16:01:46.076Z,99827.22
2023-05-16T16:04:13.005Z,99829.03
2023-05-16T16:07:04.486Z,99830.09
2023-05-16T16:09:33.792Z,99830.09
2023-05-16T16:12:00.994Z,99828.34
2023-05-16T16:14:28.374Z,99826.97
2023-05-16T16:16:55.403Z,99820.25
2023-05-16T16:19:22.916Z,99823.22
2023-05-16T16:21:49.965Z,99823.47
2023-05-16T16:24:16.968Z,99817.81
2023-05-16T16:26:45.349Z,99826.56
2023-05-16T16:29:12.374Z,99817.69
2023-05-16T16:31:39.628Z,99825.16
2023-05-16T16:34:07.256Z,99822.34
2023-05-16T16:36:34.314Z,99825.38
2023-05-16T16:39:01.389Z,99828.34
2023-05-16T16:41:28.768Z,99826.44
2023-05-16T16:43:57.065Z,99826.69
2023-05-16T16:46:24.609Z,99830.66
2023-05-16T16:48:51.684Z,99832.28
2023-05-16T16:51:18.998Z,99835.59
2023-05-16T16:53:46.839Z,99834.47
2023-05-16T16:56:14.311Z,99832.72
2023-05-16T16:58:42.177Z,99833.91
2023-05-16T17:01:10.658Z,99845.03
2023-05-16T17:03:38.207Z,99835.25
2023-05-16T17:06:05.718Z,99838.69
2023-05-16T17:08:32.690Z,99831.78
2023-05-16T17:10:59.594Z,99833.28
2023-05-16T17:13:28.368Z,99851.97
2023-05-16T17:15:55.961Z,99837.28
2023-05-16T17:18:24.184Z,99850.47
2023-05-16T17:20:51.085Z,99841.22
2023-05-16T17:23:18.269Z,99845.09
2023-05-16T17:25:45.402Z,99853.44
2023-05-16T17:28:12.286Z,99858.94
2023-05-16T17:30:39.164Z,99863.22
2023-05-16T17:33:06.150Z,99864.59
2023-05-16T17:35:34.515Z,99862.22
2023-05-16T17:38:01.628Z,99861.31
2023-05-16T17:40:28.553Z,99867.69
2023-05-16T17:42:55.399Z,99867.91
2023-05-16T17:45:22.754Z,99862.13
2023-05-16T17:47:49.748Z,99867.97
2023-05-16T17:50:16.701Z,99865.25
2023-05-16T17:52:45.309Z,99870.94
2023-05-16T17:55:12.159Z,99867.13
2023-05-16T17:57:39.317Z,99880.13
2023-05-16T18:00:08.432Z,99882.84
2023-05-16T18:02:38.170Z,99885.59
2023-05-16T18:05:07.026Z,99891.88
2023-05-16T18:07:34.149Z,99904.56
2023-05-16T18:10:02.678Z,99902.66
2023-05-16T18:12:29.812Z,99906.44
2023-05-16T18:14:56.786Z,99900.28
2023-05-16T18:17:23.803Z,99913.28
2023-05-16T18:19:50.802Z,99909.16
2023-05-16T18:22:17.857Z,99905.88
2023-05-16T18:24:45.339Z,99913.28
2023-05-16T18:27:15.745Z,99919.66
2023-05-16T18:29:42.779Z,99923.78
2023-05-16T18:32:14.498Z,99924.16
2023-05-16T18:34:41.462Z,99921.78
2023-05-16T18:37:11.327Z,99928.28
2023-05-16T18:39:39.025Z,99930.53
2023-05-16T18:42:06.571Z,99937.47
2023-05-16T18:44:40.697Z,99936.28
2023-05-16T18:47:10.424Z,99945.50
2023-05-16T18:49:37.638Z,99946.91
2023-05-16T18:52:07.674Z,99949.38
2023-05-16T18:54:46.252Z,99952.09
2023-05-16T18:57:18.870Z,99947.56
2023-05-16T18:59:53.736Z,99957.94
2023-05-16T19:02:33.911Z,99961.09
2023-05-16T19:05:11.505Z,99967.66
2023-05-16T19:07:38.894Z,99975.44
2023-05-16T19:10:10.493Z,99978.75
2023-05-16T19:12:40.584Z,99978.75
2023-05-16T19:15:16.400Z,99975.66
2023-05-16T19:17:46.414Z,99982.59
2023-05-16T19:20:16.259Z,99990.13
2023-05-16T19:22:45.675Z,99993.47
2023-05-16T19:25:12.613Z,99988.03
2023-05-16T19:27:41.053Z,99992.25
2023-05-16T19:30:09.322Z,99992.31
2023-05-16T19:32:37.819Z,100002.34
2023-05-16T19:35:05.793Z,100000.50
2023-05-16T19:37:32.819Z,100005.81
2023-05-16T19:39:59.756Z,100012.25
2023-05-16T19:42:27.015Z,100008.56
2023-05-16T19:44:53.956Z,100013.69
2023-05-16T19:47:22.375Z,100015.56
2023-05-16T19:49:51.074Z,100014.34
2023-05-16T19:52:18.301Z,100022.09
2023-05-16T19:54:45.149Z,100016.50
2023-05-16T19:57:12.318Z,100017.59
2023-05-16T19:59:40.748Z,100024.47
2023-05-16T20:02:08.141Z,100025.13
2023-05-16T20:04:35.065Z,100030.41
2023-05-16T20:07:03.632Z,100027.75
2023-05-16T20:09:30.504Z,100032.53
2023-05-16T20:11:59.145Z,100034.88
2023-05-16T20:14:26.116Z,100037.81
2023-05-16T20:16:53.407Z,100040.94
2023-05-16T20:19:20.773Z,100045.13
2023-05-16T20:21:47.915Z,100048.31
2023-05-16T20:24:17.000Z,100051.03
2023-05-16T20:26:44.009Z,100053.56
2023-05-16T20:29:11.550Z,100053.41
2023-05-16T20:31:38.506Z,100047.78
2023-05-16T20:34:05.597Z,100051.16
2023-05-16T20:36:32.577Z,100053.44
2023-05-16T20:39:00.694Z,100052.63
2023-05-16T20:41:29.800Z,100057.84
2023-05-16T20:43:58.271Z,100063.34
2023-05-16T20:46:25.411Z,100064.19
2023-05-16T20:48:53.506Z,100063.34
2023-05-16T20:51:20.570Z,100071.63
2023-05-16T20:53:47.447Z,100073.09
2023-05-16T20:56:14.358Z,100076.66
2023-05-16T20:58:43.719Z,100076.34
2023-05-16T21:01:10.813Z,100077.63
2023-05-16T21:03:38.063Z,100083.03
2023-05-16T21:06:05.502Z,100070.75
2023-05-16T21:08:32.687Z,100075.75
2023-05-16T21:10:59.722Z,100078.66
2023-05-16T21:13:26.696Z,100079.09
2023-05-16T21:15:55.422Z,100076.78
2023-05-16T21:18:22.592Z,100077.22
2023-05-16T21:20:51.148Z,100079.69
2023-05-16T21:23:18.126Z,100085.53
2023-05-16T21:25:45.031Z,100082.41
2023-05-16T21:28:13.248Z,100090.53
2023-05-16T21:30:40.566Z,100092.41
2023-05-16T21:33:09.108Z,100095.13
2023-05-16T21:35:36.156Z,100101.13
2023-05-16T21:38:04.896Z,100102.59
2023-05-16T21:40:31.973Z,100097.59
2023-05-16T21:42:59.247Z,100103.63
2023-05-16T21:45:26.490Z,100113.00
2023-05-16T21:47:53.732Z,100112.78
2023-05-16T21:50:22.057Z,100116.31
2023-05-16T21:52:49.210Z,100121.72
2023-05-16T21:55:17.479Z,100130.66
2023-05-16T21:57:45.034Z,100128.81
2023-05-16T22:00:13.939Z,100133.16
2023-05-16T22:02:40.927Z,100131.31
2023-05-16T22:05:09.287Z,100128.78
2023-05-16T22:07:38.547Z,100129.44
2023-05-16T22:10:07.181Z,100131.28
2023-05-16T22:12:34.117Z,100137.97
2023-05-16T22:15:01.360Z,100137.31
2023-05-16T22:17:28.763Z,100141.69
2023-05-16T22:19:59.779Z,100137.31
2023-05-16T22:22:27.026Z,100136.66
2023-05-16T22:24:55.276Z,100145.41
2023-05-16T22:27:23.650Z,100141.06
2023-05-16T22:29:50.897Z,100146.69
2023-05-16T22:32:17.918Z,100145.41
2023-05-16T22:34:44.825Z,100148.72
2023-05-16T22:37:11.756Z,100148.72
2023-05-16T22:39:39.658Z,100153.50
2023-05-16T22:42:08.108Z,100153.72
2023-05-16T22:44:35.328Z,100160.75
2023-05-16T22:47:02.244Z,100161.16
2023-05-16T22:49:29.292Z,100157.19
2023-05-16T22:51:56.273Z,100160.94
2023-05-16T22:54:24.217Z,100159.50
2023-05-16T22:56:51.563Z,100168.63
2023-05-16T22:59:19.961Z,100159.91
2023-05-16T23:01:46.906Z,100165.91
2023-05-16T23:04:13.873Z,100176.06
2023-05-16T23:06:41.992Z,100175.63
2023-05-16T23:09:09.175Z,100170.44
2023-05-16T23:11:36.213Z,100167.72
2023-05-16T23:14:03.459Z,100159.78
2023-05-16T23:16:31.752Z,100167.03
2023-05-16T23:18:58.724Z,100168.28
2023-05-16T23:21:25.824Z,100175.34
2023-05-16T23:23:52.726Z,100172.59
2023-05-16T23:26:19.616Z,100181.66
2023-05-16T23:28:47.496Z,100172.84
2023-05-16T23:31:14.586Z,100175.31
2023-05-16T23:33:43.002Z,100182.72
2023-05-16T23:36:10.207Z,100187.28
2023-05-16T23:38:37.326Z,100184.78
2023-05-16T23:41:04.327Z,100191.00
2023-05-16T23:43:31.404Z,100183.28
2023-05-16T23:45:58.353Z,100184.34
2023-05-16T23:48:25.420Z,100195.91
2023-05-16T23:50:54.305Z,100198.38
2023-05-16T23:53:21.730Z,100200.44
2023-05-16T23:55:48.648Z,100196.28
2023-05-16T23:58:15.800Z,100196.00
